sensor_id;sensor_type;location;lat;lon;timestamp;pressure;altitude;pressure_sealevel;temperature;humidity
56042;BME280;48756;41.374;2.066;2023-03-14T00:00:26;100300.81;;;18.70;34.20
56042;BME280;48756;41.374;2.066;2023-03-14T00:02:52;100303.53;;;18.69;34.31
56042;BME280;48756;41.374;2.066;2023-03-14T00:05:17;100307.38;;;18.61;35.07
56042;BME280;48756;41.374;2.066;2023-03-14T00:07:42;100318.28;;;18.54;35.31
56042;BME280;48756;41.374;2.066;2023-03-14T00:10:09;100326.81;;;18.42;35.09
56042;BME280;48756;41.374;2.066;2023-03-14T00:12:35;100346.69;;;18.49;35.35
56042;BME280;48756;41.374;2.066;2023-03-14T00:15:00;100342.97;;;18.53;35.89
56042;BME280;48756;41.374;2.066;2023-03-14T00:17:30;100356.31;;;18.50;35.85
56042;BME280;48756;41.374;2.066;2023-03-14T00:19:56;100360.31;;;18.40;36.08
56042;BME280;48756;41.374;2.066;2023-03-14T00:22:21;100368.72;;;18.29;36.70
56042;BME280;48756;41.374;2.066;2023-03-14T00:24:47;100395.31;;;18.24;37.24
56042;BME280;48756;41.374;2.066;2023-03-14T00:27:12;100402.88;;;18.32;36.57
56042;BME280;48756;41.374;2.066;2023-03-14T00:29:38;100400.44;;;18.27;36.67
56042;BME280;48756;41.374;2.066;2023-03-14T00:32:03;100409.03;;;18.14;37.28
56042;BME280;48756;41.374;2.066;2023-03-14T00:34:30;100402.66;;;18.18;37.89
56042;BME280;48756;41.374;2.066;2023-03-14T00:36:56;100401.19;;;18.12;37.25
56042;BME280;48756;41.374;2.066;2023-03-14T00:39:22;100395.97;;;18.11;38.07
56042;BME280;48756;41.374;2.066;2023-03-14T00:41:47;100398.53;;;17.93;38.24
56042;BME280;48756;41.374;2.066;2023-03-14T00:44:18;100404.09;;;17.86;38.00
56042;BME280;48756;41.374;2.066;2023-03-14T00:46:43;100406.09;;;17.81;38.67
56042;BME280;48756;41.374;2.066;2023-03-14T00:49:08;100414.34;;;17.73;38.27
56042;BME280;48756;41.374;2.066;2023-03-14T00:51:33;100416.50;;;17.84;38.06
56042;BME280;48756;41.374;2.066;2023-03-14T00:53:59;100423.41;;;17.67;37.36
56042;BME280;48756;41.374;2.066;2023-03-14T00:56:24;100438.97;;;17.92;36.37
56042;BME280;48756;41.374;2.066;2023-03-14T00:58:52;100439.44;;;17.82;36.04
56042;BME280;48756;41.374;2.066;2023-03-14T01:01:18;100444.66;;;17.83;35.78
56042;BME280;48756;41.374;2.066;2023-03-14T01:03:44;100431.59;;;17.80;35.81
56042;BME280;48756;41.374;2.066;2023-03-14T01:06:17;100438.06;;;17.73;35.76
56042;BME280;48756;41.374;2.066;2023-03-14T01:08:43;100442.72;;;17.66;35.03
56042;BME280;48756;41.374;2.066;2023-03-14T01:11:09;100440.72;;;17.73;34.92
56042;BME280;48756;41.374;2.066;2023-03-14T01:13:35;100441.81;;;17.47;34.72
56042;BME280;48756;41.374;2.066;2023-03-14T01:16:01;100439.63;;;17.57;33.26
56042;BME280;48756;41.374;2.066;2023-03-14T01:18:27;100440.56;;;17.76;33.04
56042;BME280;48756;41.374;2.066;2023-03-14T01:20:52;100437.22;;;17.72;33.59
56042;BME280;48756;41.374;2.066;2023-03-14T01:23:17;100444.50;;;17.66;33.33
56042;BME280;48756;41.374;2.066;2023-03-14T01:25:43;100442.97;;;17.60;33.64
56042;BME280;48756;41.374;2.066;2023-03-14T01:28:08;100437.78;;;17.59;33.56
56042;BME280;48756;41.374;2.066;2023-03-14T01:30:33;100441.66;;;17.50;33.10
56042;BME280;48756;41.374;2.066;2023-03-14T01:33:01;100448.25;;;17.60;33.17
56042;BME280;48756;41.374;2.066;2023-03-14T01:35:27;100457.34;;;17.53;33.50
56042;BME280;48756;41.374;2.066;2023-03-14T01:37:52;100456.25;;;17.37;33.31
56042;BME280;48756;41.374;2.066;2023-03-14T01:40:17;100461.59;;;17.35;33.63
56042;BME280;48756;41.374;2.066;2023-03-14T01:42:47;100481.03;;;17.33;33.88
56042;BME280;48756;41.374;2.066;2023-03-14T01:48:03;100482.31;;;17.23;34.39
56042;BME280;48756;41.374;2.066;2023-03-14T01:50:28;100484.19;;;17.19;34.39
56042;BME280;48756;41.374;2.066;2023-03-14T01:52:53;100480.28;;;17.29;34.09
56042;BME280;48756;41.374;2.066;2023-03-14T01:55:19;100488.88;;;17.12;35.05
56042;BME280;48756;41.374;2.066;2023-03-14T01:57:50;100486.56;;;17.05;35.09
56042;BME280;48756;41.374;2.066;2023-03-14T02:00:18;100483.00;;;17.06;34.85
56042;BME280;48756;41.374;2.066;2023-03-14T02:02:45;100486.22;;;16.91;35.21
56042;BME280;48756;41.374;2.066;2023-03-14T02:05:12;100487.28;;;16.87;35.55
56042;BME280;48756;41.374;2.066;2023-03-14T02:07:49;100486.00;;;16.75;36.03
56042;BME280;48756;41.374;2.066;2023-03-14T02:10:16;100485.94;;;16.76;36.09
56042;BME280;48756;41.374;2.066;2023-03-14T02:12:44;100475.78;;;16.66;36.40
56042;BME280;48756;41.374;2.066;2023-03-14T02:15:10;100463.13;;;16.53;36.56
56042;BME280;48756;41.374;2.066;2023-03-14T02:17:35;100472.81;;;16.51;36.15
56042;BME280;48756;41.374;2.066;2023-03-14T02:22:33;100468.31;;;16.32;37.83
56042;BME280;48756;41.374;2.066;2023-03-14T02:27:43;100464.31;;;16.45;37.49
56042;BME280;48756;41.374;2.066;2023-03-14T02:30:11;100462.28;;;16.30;37.77
56042;BME280;48756;41.374;2.066;2023-03-14T02:32:39;100459.34;;;16.37;38.22
56042;BME280;48756;41.374;2.066;2023-03-14T02:35:07;100456.41;;;16.45;38.22
56042;BME280;48756;41.374;2.066;2023-03-14T02:37:38;100456.78;;;16.36;38.43
56042;BME280;48756;41.374;2.066;2023-03-14T02:40:06;100462.72;;;16.41;38.18
56042;BME280;48756;41.374;2.066;2023-03-14T02:42:31;100460.63;;;16.26;38.22
56042;BME280;48756;41.374;2.066;2023-03-14T02:45:25;100460.38;;;16.33;38.15
56042;BME280;48756;41.374;2.066;2023-03-14T02:47:49;100462.03;;;16.36;38.52
56042;BME280;48756;41.374;2.066;2023-03-14T02:50:18;100467.56;;;16.28;38.76
56042;BME280;48756;41.374;2.066;2023-03-14T02:52:45;100474.69;;;16.24;38.93
56042;BME280;48756;41.374;2.066;2023-03-14T02:55:10;100458.25;;;16.43;36.89
56042;BME280;48756;41.374;2.066;2023-03-14T02:57:36;100449.38;;;16.45;37.17
56042;BME280;48756;41.374;2.066;2023-03-14T03:00:01;100448.41;;;16.48;36.76
56042;BME280;48756;41.374;2.066;2023-03-14T03:02:30;100444.06;;;16.70;36.28
56042;BME280;48756;41.374;2.066;2023-03-14T03:04:55;100458.28;;;16.65;36.63
56042;BME280;48756;41.374;2.066;2023-03-14T03:07:21;100456.22;;;16.49;37.65
56042;BME280;48756;41.374;2.066;2023-03-14T03:09:46;100471.16;;;16.49;37.94
56042;BME280;48756;41.374;2.066;2023-03-14T03:12:11;100470.78;;;16.36;38.59
56042;BME280;48756;41.374;2.066;2023-03-14T03:14:37;100482.22;;;16.35;38.83
56042;BME280;48756;41.374;2.066;2023-03-14T03:17:03;100467.72;;;16.23;38.56
56042;BME280;48756;41.374;2.066;2023-03-14T03:19:28;100478.72;;;16.11;38.68
56042;BME280;48756;41.374;2.066;2023-03-14T03:21:57;100487.19;;;15.70;39.19
56042;BME280;48756;41.374;2.066;2023-03-14T03:24:23;100478.56;;;15.66;39.63
56042;BME280;48756;41.374;2.066;2023-03-14T03:26:48;100466.91;;;15.98;38.94
56042;BME280;48756;41.374;2.066;2023-03-14T03:29:14;100478.56;;;15.66;39.20
56042;BME280;48756;41.374;2.066;2023-03-14T03:31:39;100472.41;;;16.15;37.94
56042;BME280;48756;41.374;2.066;2023-03-14T03:34:05;100482.88;;;16.17;38.32
56042;BME280;48756;41.374;2.066;2023-03-14T03:36:30;100503.81;;;15.95;38.61
56042;BME280;48756;41.374;2.066;2023-03-14T03:38:55;100500.47;;;16.15;37.90
56042;BME280;48756;41.374;2.066;2023-03-14T03:41:20;100508.22;;;16.43;37.17
56042;BME280;48756;41.374;2.066;2023-03-14T03:43:46;100507.47;;;16.39;37.11
56042;BME280;48756;41.374;2.066;2023-03-14T03:46:11;100493.34;;;16.18;37.73
56042;BME280;48756;41.374;2.066;2023-03-14T03:48:36;100502.19;;;16.16;37.92
56042;BME280;48756;41.374;2.066;2023-03-14T03:51:02;100487.72;;;16.04;38.26
56042;BME280;48756;41.374;2.066;2023-03-14T03:53:27;100497.97;;;16.12;37.95
56042;BME280;48756;41.374;2.066;2023-03-14T03:55:53;100491.09;;;16.08;38.17
56042;BME280;48756;41.374;2.066;2023-03-14T03:58:18;100503.16;;;16.13;37.80
56042;BME280;48756;41.374;2.066;2023-03-14T04:00:44;100495.69;;;16.01;38.16
56042;BME280;48756;41.374;2.066;2023-03-14T04:03:09;100503.38;;;15.82;38.75
56042;BME280;48756;41.374;2.066;2023-03-14T04:05:34;100493.88;;;15.78;39.18
56042;BME280;48756;41.374;2.066;2023-03-14T04:08:00;100493.09;;;15.76;39.26
56042;BME280;48756;41.374;2.066;2023-03-14T04:10:26;100510.03;;;15.68;39.45
56042;BME280;48756;41.374;2.066;2023-03-14T04:12:51;100512.72;;;15.66;39.32
56042;BME280;48756;41.374;2.066;2023-03-14T04:15:17;100504.06;;;15.63;39.66
56042;BME280;48756;41.374;2.066;2023-03-14T04:17:42;100491.47;;;15.72;39.75
56042;BME280;48756;41.374;2.066;2023-03-14T04:20:08;100507.50;;;15.65;39.57
56042;BME280;48756;41.374;2.066;2023-03-14T04:22:36;100505.06;;;15.58;40.05
56042;BME280;48756;41.374;2.066;2023-03-14T04:25:01;100507.19;;;15.47;39.97
56042;BME280;48756;41.374;2.066;2023-03-14T04:27:28;100510.25;;;15.61;40.11
56042;BME280;48756;41.374;2.066;2023-03-14T04:29:53;100514.69;;;15.58;39.87
56042;BME280;48756;41.374;2.066;2023-03-14T04:32:19;100508.41;;;15.64;40.24
56042;BME280;48756;41.374;2.066;2023-03-14T04:34:44;100521.25;;;15.45;40.41
56042;BME280;48756;41.374;2.066;2023-03-14T04:37:10;100523.56;;;15.27;40.36
56042;BME280;48756;41.374;2.066;2023-03-14T04:39:35;100528.28;;;15.44;40.47
56042;BME280;48756;41.374;2.066;2023-03-14T04:42:00;100532.69;;;15.44;40.74
56042;BME280;48756;41.374;2.066;2023-03-14T04:44:26;100540.34;;;15.23;40.78
56042;BME280;48756;41.374;2.066;2023-03-14T04:46:51;100542.59;;;15.34;40.79
56042;BME280;48756;41.374;2.066;2023-03-14T04:49:16;100535.34;;;15.42;40.79
56042;BME280;48756;41.374;2.066;2023-03-14T04:51:42;100536.91;;;15.48;40.80
56042;BME280;48756;41.374;2.066;2023-03-14T04:54:07;100536.22;;;15.15;41.49
56042;BME280;48756;41.374;2.066;2023-03-14T04:56:32;100536.22;;;15.15;41.62
56042;BME280;48756;41.374;2.066;2023-03-14T04:58:58;100535.09;;;14.95;42.04
56042;BME280;48756;41.374;2.066;2023-03-14T05:01:23;100537.81;;;14.91;41.62
56042;BME280;48756;41.374;2.066;2023-03-14T05:03:49;100552.59;;;14.95;41.72
56042;BME280;48756;41.374;2.066;2023-03-14T05:06:14;100549.69;;;15.04;41.62
56042;BME280;48756;41.374;2.066;2023-03-14T05:08:39;100554.81;;;15.07;41.61
56042;BME280;48756;41.374;2.066;2023-03-14T05:11:05;100553.34;;;14.98;41.99
56042;BME280;48756;41.374;2.066;2023-03-14T05:13:30;100550.59;;;15.03;41.93
56042;BME280;48756;41.374;2.066;2023-03-14T05:16:02;100562.13;;;14.97;42.33
56042;BME280;48756;41.374;2.066;2023-03-14T05:18:28;100564.97;;;14.90;41.78
56042;BME280;48756;41.374;2.066;2023-03-14T05:20:53;100565.97;;;14.86;42.39
56042;BME280;48756;41.374;2.066;2023-03-14T05:23:18;100574.09;;;15.06;41.93
56042;BME280;48756;41.374;2.066;2023-03-14T05:25:44;100572.03;;;14.88;41.99
56042;BME280;48756;41.374;2.066;2023-03-14T05:28:09;100575.41;;;14.91;42.50
56042;BME280;48756;41.374;2.066;2023-03-14T05:30:34;100581.75;;;14.84;42.61
56042;BME280;48756;41.374;2.066;2023-03-14T05:33:00;100593.38;;;14.76;42.75
56042;BME280;48756;41.374;2.066;2023-03-14T05:35:25;100596.09;;;14.73;42.60
56042;BME280;48756;41.374;2.066;2023-03-14T05:37:50;100594.06;;;14.82;43.01
56042;BME280;48756;41.374;2.066;2023-03-14T05:40:16;100592.53;;;14.75;42.38
56042;BME280;48756;41.374;2.066;2023-03-14T05:42:41;100600.78;;;14.61;43.10
56042;BME280;48756;41.374;2.066;2023-03-14T05:45:07;100601.41;;;14.69;43.03
56042;BME280;48756;41.374;2.066;2023-03-14T05:47:32;100599.78;;;14.65;42.95
56042;BME280;48756;41.374;2.066;2023-03-14T05:49:57;100597.44;;;14.56;43.40
56042;BME280;48756;41.374;2.066;2023-03-14T05:52:22;100590.50;;;14.54;43.47
56042;BME280;48756;41.374;2.066;2023-03-14T05:54:48;100587.97;;;14.51;43.16
56042;BME280;48756;41.374;2.066;2023-03-14T05:57:13;100586.84;;;14.59;43.67
56042;BME280;48756;41.374;2.066;2023-03-14T05:59:38;100582.31;;;14.33;43.47
56042;BME280;48756;41.374;2.066;2023-03-14T06:02:04;100590.16;;;14.33;43.58
56042;BME280;48756;41.374;2.066;2023-03-14T06:04:29;100587.59;;;14.32;44.33
56042;BME280;48756;41.374;2.066;2023-03-14T06:06:54;100597.03;;;14.37;43.88
56042;BME280;48756;41.374;2.066;2023-03-14T06:09:20;100585.19;;;14.23;43.92
56042;BME280;48756;41.374;2.066;2023-03-14T06:11:47;100603.75;;;14.15;44.29
56042;BME280;48756;41.374;2.066;2023-03-14T06:14:13;100598.84;;;14.35;44.12
56042;BME280;48756;41.374;2.066;2023-03-14T06:16:38;100598.25;;;14.26;44.28
56042;BME280;48756;41.374;2.066;2023-03-14T06:19:03;100598.47;;;14.17;44.74
56042;BME280;48756;41.374;2.066;2023-03-14T06:21:29;100595.81;;;14.18;45.07
56042;BME280;48756;41.374;2.066;2023-03-14T06:23:54;100598.63;;;14.10;44.51
56042;BME280;48756;41.374;2.066;2023-03-14T06:26:20;100604.75;;;14.11;44.44
56042;BME280;48756;41.374;2.066;2023-03-14T06:28:45;100599.72;;;14.03;45.29
56042;BME280;48756;41.374;2.066;2023-03-14T06:31:10;100603.09;;;14.07;44.84
56042;BME280;48756;41.374;2.066;2023-03-14T06:33:36;100608.09;;;14.16;45.49
56042;BME280;48756;41.374;2.066;2023-03-14T06:36:01;100608.13;;;14.15;44.78
56042;BME280;48756;41.374;2.066;2023-03-14T06:38:26;100609.25;;;14.06;45.85
56042;BME280;48756;41.374;2.066;2023-03-14T06:40:54;100610.19;;;14.03;45.26
56042;BME280;48756;41.374;2.066;2023-03-14T06:43:20;100610.72;;;14.16;45.17
56042;BME280;48756;41.374;2.066;2023-03-14T06:45:45;100619.22;;;14.26;45.10
56042;BME280;48756;41.374;2.066;2023-03-14T06:48:10;100619.03;;;14.32;44.28
56042;BME280;48756;41.374;2.066;2023-03-14T06:50:36;100626.53;;;14.13;44.58
56042;BME280;48756;41.374;2.066;2023-03-14T06:53:01;100627.50;;;14.09;44.37
56042;BME280;48756;41.374;2.066;2023-03-14T06:55:26;100642.91;;;14.21;44.27
56042;BME280;48756;41.374;2.066;2023-03-14T06:57:52;100630.59;;;14.23;44.39
56042;BME280;48756;41.374;2.066;2023-03-14T07:00:17;100649.06;;;14.19;44.66
56042;BME280;48756;41.374;2.066;2023-03-14T07:02:43;100636.31;;;14.39;44.12
56042;BME280;48756;41.374;2.066;2023-03-14T07:05:08;100646.94;;;14.34;44.10
56042;BME280;48756;41.374;2.066;2023-03-14T07:07:35;100649.47;;;14.37;43.61
56042;BME280;48756;41.374;2.066;2023-03-14T07:10:00;100642.34;;;14.43;43.74
56042;BME280;48756;41.374;2.066;2023-03-14T07:12:26;100637.09;;;14.43;44.01
56042;BME280;48756;41.374;2.066;2023-03-14T07:14:51;100633.47;;;14.50;43.79
56042;BME280;48756;41.374;2.066;2023-03-14T07:17:17;100653.72;;;14.41;43.74
56042;BME280;48756;41.374;2.066;2023-03-14T07:19:42;100655.16;;;14.55;43.34
56042;BME280;48756;41.374;2.066;2023-03-14T07:22:08;100642.78;;;14.60;43.86
56042;BME280;48756;41.374;2.066;2023-03-14T07:24:33;100645.84;;;14.76;43.11
56042;BME280;48756;41.374;2.066;2023-03-14T07:26:58;100652.63;;;14.83;43.47
56042;BME280;48756;41.374;2.066;2023-03-14T07:29:24;100654.06;;;14.94;42.64
56042;BME280;48756;41.374;2.066;2023-03-14T07:31:49;100656.41;;;15.04;42.44
56042;BME280;48756;41.374;2.066;2023-03-14T07:34:14;100646.19;;;14.93;42.54
56042;BME280;48756;41.374;2.066;2023-03-14T07:36:40;100652.34;;;14.92;41.94
56042;BME280;48756;41.374;2.066;2023-03-14T07:39:05;100658.47;;;14.92;42.01
56042;BME280;48756;41.374;2.066;2023-03-14T07:41:31;100666.56;;;14.85;42.52
56042;BME280;48756;41.374;2.066;2023-03-14T07:43:57;100664.66;;;14.90;41.84
56042;BME280;48756;41.374;2.066;2023-03-14T07:46:22;100681.75;;;15.05;41.94
56042;BME280;48756;41.374;2.066;2023-03-14T07:48:48;100672.47;;;15.22;41.41
56042;BME280;48756;41.374;2.066;2023-03-14T07:51:13;100699.72;;;15.18;41.41
56042;BME280;48756;41.374;2.066;2023-03-14T07:53:38;100682.06;;;15.23;41.20
56042;BME280;48756;41.374;2.066;2023-03-14T07:56:04;100682.44;;;15.41;40.73
56042;BME280;48756;41.374;2.066;2023-03-14T07:58:29;100684.28;;;15.37;41.02
56042;BME280;48756;41.374;2.066;2023-03-14T08:00:55;100695.03;;;15.59;40.74
56042;BME280;48756;41.374;2.066;2023-03-14T08:03:23;100702.97;;;15.56;40.57
56042;BME280;48756;41.374;2.066;2023-03-14T08:05:49;100707.25;;;15.60;40.34
56042;BME280;48756;41.374;2.066;2023-03-14T08:08:15;100708.13;;;15.88;40.23
56042;BME280;48756;41.374;2.066;2023-03-14T08:10:44;100704.81;;;15.82;40.33
56042;BME280;48756;41.374;2.066;2023-03-14T08:13:09;100702.41;;;15.46;40.54
56042;BME280;48756;41.374;2.066;2023-03-14T08:15:35;100707.78;;;15.99;40.36
56042;BME280;48756;41.374;2.066;2023-03-14T08:18:01;100715.66;;;15.99;40.00
56042;BME280;48756;41.374;2.066;2023-03-14T08:20:28;100724.19;;;16.07;39.59
56042;BME280;48756;41.374;2.066;2023-03-14T08:22:57;100714.28;;;16.15;39.39
56042;BME280;48756;41.374;2.066;2023-03-14T08:25:22;100721.88;;;15.97;39.88
56042;BME280;48756;41.374;2.066;2023-03-14T08:27:51;100742.44;;;16.12;39.87
56042;BME280;48756;41.374;2.066;2023-03-14T08:30:18;100740.59;;;16.14;39.63
56042;BME280;48756;41.374;2.066;2023-03-14T08:32:43;100738.50;;;16.50;39.18
56042;BME280;48756;41.374;2.066;2023-03-14T08:35:09;100723.34;;;16.58;38.98
56042;BME280;48756;41.374;2.066;2023-03-14T08:37:35;100726.50;;;16.16;39.05
56042;BME280;48756;41.374;2.066;2023-03-14T08:40:01;100722.94;;;16.44;38.89
56042;BME280;48756;41.374;2.066;2023-03-14T08:42:26;100721.28;;;16.41;38.99
56042;BME280;48756;41.374;2.066;2023-03-14T08:44:54;100721.91;;;16.74;38.74
56042;BME280;48756;41.374;2.066;2023-03-14T08:47:20;100717.72;;;16.94;38.52
56042;BME280;48756;41.374;2.066;2023-03-14T08:49:45;100707.38;;;16.89;38.61
56042;BME280;48756;41.374;2.066;2023-03-14T08:52:11;100714.97;;;16.98;38.54
56042;BME280;48756;41.374;2.066;2023-03-14T08:54:36;100723.13;;;16.64;38.71
56042;BME280;48756;41.374;2.066;2023-03-14T08:57:02;100714.91;;;17.23;38.47
56042;BME280;48756;41.374;2.066;2023-03-14T08:59:27;100727.78;;;17.07;38.60
56042;BME280;48756;41.374;2.066;2023-03-14T09:01:53;100717.81;;;17.39;37.45
56042;BME280;48756;41.374;2.066;2023-03-14T09:04:22;100730.00;;;17.18;38.22
56042;BME280;48756;41.374;2.066;2023-03-14T09:06:50;100737.41;;;17.55;37.47
56042;BME280;48756;41.374;2.066;2023-03-14T09:09:16;100727.59;;;17.35;37.68
56042;BME280;48756;41.374;2.066;2023-03-14T09:11:42;100738.69;;;17.45;37.77
56042;BME280;48756;41.374;2.066;2023-03-14T09:14:07;100722.09;;;17.41;37.11
56042;BME280;48756;41.374;2.066;2023-03-14T09:16:33;100738.72;;;17.43;37.40
56042;BME280;48756;41.374;2.066;2023-03-14T09:18:58;100732.56;;;17.44;37.34
56042;BME280;48756;41.374;2.066;2023-03-14T09:21:25;100741.00;;;17.53;37.19
56042;BME280;48756;41.374;2.066;2023-03-14T09:23:50;100759.81;;;17.67;37.15
56042;BME280;48756;41.374;2.066;2023-03-14T09:26:15;100744.38;;;17.80;36.78
56042;BME280;48756;41.374;2.066;2023-03-14T09:28:41;100769.34;;;17.71;36.61
56042;BME280;48756;41.374;2.066;2023-03-14T09:31:10;100776.78;;;17.35;37.11
56042;BME280;48756;41.374;2.066;2023-03-14T09:33:37;100766.88;;;17.65;36.35
56042;BME280;48756;41.374;2.066;2023-03-14T09:36:02;100772.59;;;17.78;36.22
56042;BME280;48756;41.374;2.066;2023-03-14T09:38:28;100770.00;;;17.76;36.30
56042;BME280;48756;41.374;2.066;2023-03-14T09:40:54;100774.28;;;17.79;36.85
56042;BME280;48756;41.374;2.066;2023-03-14T09:43:20;100769.41;;;17.69;36.89
56042;BME280;48756;41.374;2.066;2023-03-14T09:45:50;100753.34;;;17.75;36.58
56042;BME280;48756;41.374;2.066;2023-03-14T09:48:19;100771.88;;;17.96;36.19
56042;BME280;48756;41.374;2.066;2023-03-14T09:50:46;100764.88;;;18.39;35.86
56042;BME280;48756;41.374;2.066;2023-03-14T09:53:14;100767.06;;;18.27;35.33
56042;BME280;48756;41.374;2.066;2023-03-14T09:55:42;100772.22;;;18.30;35.48
56042;BME280;48756;41.374;2.066;2023-03-14T09:58:16;100768.66;;;18.31;35.68
56042;BME280;48756;41.374;2.066;2023-03-14T10:00:41;100776.75;;;18.49;35.26
56042;BME280;48756;41.374;2.066;2023-03-14T10:05:38;100777.63;;;18.27;35.64
56042;BME280;48756;41.374;2.066;2023-03-14T10:08:04;100778.34;;;18.53;35.10
56042;BME280;48756;41.374;2.066;2023-03-14T10:10:30;100789.31;;;18.86;34.46
56042;BME280;48756;41.374;2.066;2023-03-14T10:12:56;100792.31;;;18.34;35.45
56042;BME280;48756;41.374;2.066;2023-03-14T10:15:24;100793.22;;;18.33;35.19
56042;BME280;48756;41.374;2.066;2023-03-14T10:17:50;100792.06;;;18.62;35.20
56042;BME280;48756;41.374;2.066;2023-03-14T10:22:52;100790.81;;;18.91;33.76
56042;BME280;48756;41.374;2.066;2023-03-14T10:25:26;100804.03;;;18.91;34.63
56042;BME280;48756;41.374;2.066;2023-03-14T10:27:51;100777.19;;;19.21;34.29
56042;BME280;48756;41.374;2.066;2023-03-14T10:30:27;100794.16;;;19.15;34.50
56042;BME280;48756;41.374;2.066;2023-03-14T10:32:53;100808.09;;;18.98;34.48
56042;BME280;48756;41.374;2.066;2023-03-14T10:35:20;100809.50;;;18.87;33.97
56042;BME280;48756;41.374;2.066;2023-03-14T10:37:56;100797.00;;;19.31;34.25
56042;BME280;48756;41.374;2.066;2023-03-14T10:40:24;100815.31;;;19.15;34.08
56042;BME280;48756;41.374;2.066;2023-03-14T10:42:51;100804.59;;;19.39;33.56
56042;BME280;48756;41.374;2.066;2023-03-14T10:48:05;100790.88;;;19.10;33.56
56042;BME280;48756;41.374;2.066;2023-03-14T10:50:31;100784.88;;;19.27;33.29
56042;BME280;48756;41.374;2.066;2023-03-14T10:52:57;100785.63;;;19.49;33.35
56042;BME280;48756;41.374;2.066;2023-03-14T10:55:25;100778.00;;;20.00;33.33
56042;BME280;48756;41.374;2.066;2023-03-14T10:57:51;100789.75;;;20.11;33.26
56042;BME280;48756;41.374;2.066;2023-03-14T11:00:21;100790.66;;;19.74;32.49
56042;BME280;48756;41.374;2.066;2023-03-14T11:05:28;100789.66;;;19.38;33.32
56042;BME280;48756;41.374;2.066;2023-03-14T11:08:01;100782.97;;;19.10;33.98
56042;BME280;48756;41.374;2.066;2023-03-14T11:10:34;100791.34;;;19.59;33.23
56042;BME280;48756;41.374;2.066;2023-03-14T11:15:30;100769.84;;;19.67;32.50
56042;BME280;48756;41.374;2.066;2023-03-14T11:22:58;100782.22;;;19.85;31.81
56042;BME280;48756;41.374;2.066;2023-03-14T11:25:36;100787.72;;;19.80;32.22
56042;BME280;48756;41.374;2.066;2023-03-14T11:28:13;100770.50;;;20.45;31.96
56042;BME280;48756;41.374;2.066;2023-03-14T11:33:16;100801.78;;;20.18;31.74
56042;BME280;48756;41.374;2.066;2023-03-14T11:40:51;100797.63;;;20.68;30.31
56042;BME280;48756;41.374;2.066;2023-03-14T11:43:20;100794.81;;;20.71;30.46
56042;BME280;48756;41.374;2.066;2023-03-14T11:45:51;100777.41;;;21.00;30.24
56042;BME280;48756;41.374;2.066;2023-03-14T11:50:57;100795.19;;;20.46;29.95
56042;BME280;48756;41.374;2.066;2023-03-14T11:53:31;100783.91;;;20.94;30.00
56042;BME280;48756;41.374;2.066;2023-03-14T11:56:00;100775.94;;;21.29;28.83
56042;BME280;48756;41.374;2.066;2023-03-14T11:58:27;100754.13;;;22.20;28.46
56042;BME280;48756;41.374;2.066;2023-03-14T12:00:54;100778.41;;;21.15;27.99
56042;BME280;48756;41.374;2.066;2023-03-14T12:06:05;100767.06;;;20.78;29.43
56042;BME280;48756;41.374;2.066;2023-03-14T12:08:44;100751.56;;;21.05;29.45
56042;BME280;48756;41.374;2.066;2023-03-14T12:13:56;100738.88;;;21.60;28.76
56042;BME280;48756;41.374;2.066;2023-03-14T12:18:53;100743.22;;;21.61;28.10
56042;BME280;48756;41.374;2.066;2023-03-14T12:21:19;100741.75;;;21.71;27.67
56042;BME280;48756;41.374;2.066;2023-03-14T12:23:48;100737.56;;;21.67;28.32
56042;BME280;48756;41.374;2.066;2023-03-14T12:26:19;100736.28;;;21.43;28.53
56042;BME280;48756;41.374;2.066;2023-03-14T12:34:03;100717.31;;;21.98;28.34
56042;BME280;48756;41.374;2.066;2023-03-14T12:39:19;100718.44;;;22.40;27.92
56042;BME280;48756;41.374;2.066;2023-03-14T12:41:48;100716.09;;;22.04;28.62
56042;BME280;48756;41.374;2.066;2023-03-14T12:46:53;100710.78;;;22.49;27.88
56042;BME280;48756;41.374;2.066;2023-03-14T12:49:18;100708.66;;;22.40;27.06
56042;BME280;48756;41.374;2.066;2023-03-14T12:51:44;100691.94;;;22.54;26.82
56042;BME280;48756;41.374;2.066;2023-03-14T12:54:13;100707.63;;;22.73;27.54
56042;BME280;48756;41.374;2.066;2023-03-14T12:56:44;100692.06;;;22.37;26.88
56042;BME280;48756;41.374;2.066;2023-03-14T12:59:17;100692.03;;;22.22;26.76
56042;BME280;48756;41.374;2.066;2023-03-14T13:01:48;100680.19;;;22.28;27.21
56042;BME280;48756;41.374;2.066;2023-03-14T13:04:18;100691.66;;;21.51;27.17
56042;BME280;48756;41.374;2.066;2023-03-14T13:06:46;100686.66;;;21.92;27.16
56042;BME280;48756;41.374;2.066;2023-03-14T13:12:12;100682.25;;;22.53;26.99
56042;BME280;48756;41.374;2.066;2023-03-14T13:14:47;100686.41;;;22.43;26.81
56042;BME280;48756;41.374;2.066;2023-03-14T13:17:14;100697.59;;;22.48;26.98
56042;BME280;48756;41.374;2.066;2023-03-14T13:19:41;100674.09;;;22.42;26.72
56042;BME280;48756;41.374;2.066;2023-03-14T13:22:20;100683.81;;;22.27;26.91
56042;BME280;48756;41.374;2.066;2023-03-14T13:24:46;100673.81;;;22.46;26.61
56042;BME280;48756;41.374;2.066;2023-03-14T13:27:18;100673.56;;;22.21;26.77
56042;BME280;48756;41.374;2.066;2023-03-14T13:29:49;100677.31;;;22.47;26.74
56042;BME280;48756;41.374;2.066;2023-03-14T13:32:22;100669.28;;;22.02;27.59
56042;BME280;48756;41.374;2.066;2023-03-14T13:34:51;100670.63;;;22.40;27.34
56042;BME280;48756;41.374;2.066;2023-03-14T13:37:21;100658.50;;;23.08;26.35
56042;BME280;48756;41.374;2.066;2023-03-14T13:39:51;100655.44;;;22.72;26.66
56042;BME280;48756;41.374;2.066;2023-03-14T13:42:16;100658.06;;;22.57;26.78
56042;BME280;48756;41.374;2.066;2023-03-14T13:44:42;100647.34;;;22.45;26.85